createdAt,value
2018-12-25T00:02:36.058Z,94.60
2018-12-25T00:05:16.089Z,94.60
2018-12-25T00:07:56.336Z,94.60
2018-12-25T00:10:36.390Z,94.60
2018-12-25T00:13:16.420Z,94.60
2018-12-25T00:15:56.356Z,94.60
2018-12-25T00:18:38.560Z,94.60
2018-12-25T00:21:18.505Z,94.60
2018-12-25T00:23:58.502Z,94.60
2018-12-25T00:26:38.534Z,94.60
2018-12-25T00:29:18.617Z,94.60
2018-12-25T00:31:58.750Z,94.60
2018-12-25T00:34:39.302Z,94.60
2018-12-25T00:37:19.244Z,94.50
2018-12-25T00:39:59.194Z,94.50
2018-12-25T00:42:39.364Z,94.50
2018-12-25T00:45:18.878Z,94.50
2018-12-25T00:47:58.752Z,94.50
2018-12-25T00:50:38.985Z,94.50
2018-12-25T00:53:18.794Z,94.60
2018-12-25T00:55:58.743Z,94.70
2018-12-25T00:58:38.778Z,94.80
2018-12-25T01:01:18.830Z,94.90
2018-12-25T01:03:58.894Z,94.90
2018-12-25T01:06:38.987Z,94.90
2018-12-25T01:09:18.994Z,94.90
2018-12-25T01:11:58.954Z,95.00
2018-12-25T01:14:39.202Z,95.00
2018-12-25T01:17:19.275Z,95.00
2018-12-25T01:19:58.950Z,95.00
2018-12-25T01:22:39.022Z,95.00
2018-12-25T01:25:19.326Z,94.90
2018-12-25T01:27:59.443Z,94.90
2018-12-25T01:30:39.475Z,94.80
2018-12-25T01:33:19.396Z,94.80
2018-12-25T01:35:59.402Z,94.80
2018-12-25T01:38:39.480Z,94.80
2018-12-25T01:41:20.404Z,94.70
2018-12-25T01:44:00.811Z,94.70
2018-12-25T01:46:40.930Z,94.70
2018-12-25T01:49:20.946Z,94.60
2018-12-25T01:52:01.014Z,94.50
2018-12-25T01:54:41.313Z,94.50
2018-12-25T01:57:21.656Z,94.40
2018-12-25T02:00:01.549Z,94.40
2018-12-25T02:02:41.684Z,94.40
2018-12-25T02:05:21.918Z,94.40
2018-12-25T02:08:02.017Z,94.40
2018-12-25T02:10:41.874Z,94.70
2018-12-25T02:13:22.079Z,94.30
2018-12-25T02:16:02.313Z,94.30
2018-12-25T02:18:42.249Z,94.30
2018-12-25T02:21:22.219Z,94.30
2018-12-25T02:24:01.999Z,94.30
2018-12-25T02:26:42.152Z,94.30
2018-12-25T02:29:22.140Z,94.30
2018-12-25T02:32:02.103Z,94.30
2018-12-25T02:34:42.059Z,94.30
2018-12-25T02:37:22.035Z,94.30
2018-12-25T02:40:02.067Z,94.30
2018-12-25T02:42:42.107Z,94.30
2018-12-25T02:45:21.805Z,94.30
2018-12-25T02:48:01.948Z,94.40
2018-12-25T02:50:41.972Z,94.50
2018-12-25T02:53:22.030Z,94.40
2018-12-25T02:56:02.502Z,94.40
2018-12-25T02:58:42.192Z,94.40
2018-12-25T03:01:22.208Z,94.40
2018-12-25T03:04:02.375Z,94.30
2018-12-25T03:06:42.608Z,94.30
2018-12-25T03:09:22.746Z,94.20
2018-12-25T03:12:03.083Z,94.20
2018-12-25T03:14:43.346Z,94.20
2018-12-25T03:17:23.402Z,94.10
2018-12-25T03:20:03.437Z,94.20
2018-12-25T03:22:44.240Z,94.10
2018-12-25T03:25:24.143Z,94.10
2018-12-25T03:28:04.158Z,94.00
2018-12-25T03:30:44.128Z,94.00
2018-12-25T03:33:23.912Z,94.00
2018-12-25T03:36:04.063Z,94.00
2018-12-25T03:38:44.048Z,94.00
2018-12-25T03:41:24.386Z,93.90
2018-12-25T03:44:04.527Z,93.80
2018-12-25T03:46:44.385Z,93.70
2018-12-25T03:49:24.343Z,93.60
2018-12-25T03:52:04.162Z,93.70
2018-12-25T03:54:31.407Z,93.70
2018-12-25T03:56:58.768Z,93.70
2018-12-25T03:59:26.139Z,93.60
2018-12-25T04:01:53.504Z,93.50
2018-12-25T04:04:20.862Z,93.50
2018-12-25T04:06:48.157Z,93.50
2018-12-25T04:09:15.394Z,93.40
2018-12-25T04:11:42.723Z,93.30
2018-12-25T04:14:10.109Z,93.30
2018-12-25T04:16:37.432Z,93.30
2018-12-25T04:19:04.874Z,93.20
2018-12-25T04:21:51.769Z,93.20
2018-12-25T04:24:31.643Z,93.20
2018-12-25T04:27:11.750Z,93.10
2018-12-25T04:29:39.090Z,93.10
2018-12-25T04:32:06.402Z,93.10
2018-12-25T04:34:33.632Z,93.10
2018-12-25T04:37:00.957Z,93.10
2018-12-25T04:39:28.200Z,93.00
2018-12-25T04:41:55.584Z,93.10
2018-12-25T04:44:22.908Z,93.10
2018-12-25T04:46:50.257Z,93.10
2018-12-25T04:49:17.472Z,93.10
2018-12-25T04:51:44.834Z,93.10
2018-12-25T04:54:12.163Z,93.20
2018-12-25T04:56:39.502Z,93.20
2018-12-25T04:59:06.864Z,93.20
2018-12-25T05:01:34.183Z,93.10
2018-12-25T05:04:01.490Z,93.10
2018-12-25T05:06:28.806Z,93.10
2018-12-25T05:08:56.130Z,93.00
2018-12-25T05:11:23.447Z,93.00
2018-12-25T05:13:50.769Z,92.90
2018-12-25T05:16:18.012Z,92.90
2018-12-25T05:18:45.336Z,92.80
2018-12-25T05:21:12.693Z,92.70
2018-12-25T05:23:40.044Z,92.70
2018-12-25T05:26:07.372Z,92.70
2018-12-25T05:28:34.595Z,92.60
2018-12-25T05:31:01.841Z,92.60
2018-12-25T05:33:29.164Z,92.50
2018-12-25T05:35:56.470Z,92.60
2018-12-25T05:38:23.812Z,92.60
2018-12-25T05:40:51.054Z,92.50
2018-12-25T05:43:18.406Z,92.50
2018-12-25T05:45:45.736Z,92.50
2018-12-25T05:48:13.102Z,92.50
2018-12-25T05:50:46.531Z,92.50
2018-12-25T05:53:09.619Z,92.50
2018-12-25T05:55:36.950Z,92.50
2018-12-25T05:58:04.201Z,92.50
2018-12-25T06:00:31.533Z,92.50
2018-12-25T06:02:58.869Z,92.50
2018-12-25T06:05:26.224Z,92.50
2018-12-25T06:08:13.036Z,92.50
2018-12-25T06:10:59.867Z,92.50
2018-12-25T06:13:46.794Z,92.50
2018-12-25T06:16:33.636Z,92.50
2018-12-25T06:19:20.522Z,92.50
2018-12-25T06:22:07.389Z,92.50
2018-12-25T06:24:47.371Z,92.50
2018-12-25T06:27:27.510Z,92.50
2018-12-25T06:30:07.508Z,92.40
2018-12-25T06:32:47.525Z,92.30
2018-12-25T06:35:27.573Z,92.30
2018-12-25T06:38:07.830Z,92.20
2018-12-25T06:40:47.820Z,92.20
2018-12-25T06:43:28.205Z,92.20
2018-12-25T06:46:08.395Z,92.20
2018-12-25T06:48:48.404Z,92.20
2018-12-25T06:51:28.171Z,92.20
2018-12-25T06:54:08.293Z,92.10
2018-12-25T06:56:48.282Z,92.00
2018-12-25T06:59:28.256Z,92.00
2018-12-25T07:02:08.506Z,91.90
2018-12-25T07:04:48.637Z,91.90
2018-12-25T07:07:28.918Z,91.90
2018-12-25T07:10:08.989Z,91.90
2018-12-25T07:12:48.776Z,91.90
2018-12-25T07:15:33.014Z,92.00
2018-12-25T07:18:10.834Z,92.10
2018-12-25T07:20:51.031Z,92.20
2018-12-25T07:23:30.911Z,92.30
2018-12-25T07:26:11.021Z,92.30
2018-12-25T07:28:53.685Z,92.40
2018-12-25T07:31:33.780Z,92.40
2018-12-25T07:34:13.650Z,92.40
2018-12-25T07:36:53.683Z,92.40
2018-12-25T07:39:33.713Z,92.50
2018-12-25T07:42:13.694Z,92.60
2018-12-25T07:44:53.685Z,92.70
2018-12-25T07:47:33.688Z,92.80
2018-12-25T07:50:13.667Z,92.90
2018-12-25T07:52:53.652Z,92.90
2018-12-25T07:55:33.570Z,93.00
2018-12-25T07:58:13.712Z,93.00
2018-12-25T08:00:53.928Z,93.00
2018-12-25T08:03:33.932Z,93.00
2018-12-25T08:06:13.921Z,93.00
2018-12-25T08:08:54.058Z,93.00
2018-12-25T08:11:34.114Z,93.00
2018-12-25T08:14:14.046Z,93.00
2018-12-25T08:16:54.120Z,92.90
2018-12-25T08:19:34.264Z,92.90
2018-12-25T08:22:14.262Z,92.80
2018-12-25T08:24:41.602Z,92.70
2018-12-25T08:27:21.354Z,92.50
2018-12-25T08:30:01.625Z,92.40
2018-12-25T08:32:41.752Z,92.30
2018-12-25T08:35:21.873Z,92.10
2018-12-25T08:38:01.936Z,91.90
2018-12-25T08:40:42.122Z,91.70
2018-12-25T08:43:22.218Z,91.30
2018-12-25T08:46:02.551Z,91.10
2018-12-25T08:48:42.399Z,90.90
2018-12-25T08:51:22.459Z,90.70
2018-12-25T08:54:02.453Z,90.60
2018-12-25T08:56:42.569Z,90.50
2018-12-25T08:59:22.557Z,90.40
2018-12-25T09:02:02.675Z,90.20
2018-12-25T09:04:42.537Z,90.00
2018-12-25T09:07:22.433Z,89.90
2018-12-25T09:10:02.395Z,89.70
2018-12-25T09:12:42.592Z,89.40
2018-12-25T09:15:22.586Z,89.10
2018-12-25T09:18:02.768Z,88.60
2018-12-25T09:20:42.792Z,88.20
2018-12-25T09:23:22.903Z,87.60
2018-12-25T09:26:02.861Z,87.20
2018-12-25T09:28:43.729Z,86.80
2018-12-25T09:31:23.977Z,85.70
2018-12-25T09:34:03.889Z,85.70
2018-12-25T09:36:43.995Z,85.70
2018-12-25T09:39:23.987Z,85.70
2018-12-25T09:42:04.110Z,84.60
2018-12-25T09:44:43.828Z,84.30
2018-12-25T09:47:23.945Z,84.20
2018-12-25T09:50:03.790Z,84.00
2018-12-25T09:52:43.752Z,83.80
2018-12-25T09:55:23.867Z,83.40
2018-12-25T09:58:04.087Z,83.20
2018-12-25T10:00:44.292Z,82.90
2018-12-25T10:03:24.555Z,82.50
2018-12-25T10:06:04.448Z,83.00
2018-12-25T10:08:44.325Z,83.10
2018-12-25T10:11:24.347Z,82.60
2018-12-25T10:14:04.205Z,80.70
2018-12-25T10:16:44.539Z,79.20
2018-12-25T10:19:24.528Z,78.20
2018-12-25T10:22:05.313Z,73.00
2018-12-25T10:24:44.939Z,69.60
2018-12-25T10:27:25.074Z,67.90
2018-12-25T10:30:05.833Z,67.30
2018-12-25T10:32:46.759Z,67.70
2018-12-25T10:35:26.982Z,68.30
2018-12-25T10:38:06.948Z,67.90
2018-12-25T10:40:47.220Z,67.60
2018-12-25T10:43:27.234Z,65.40
2018-12-25T10:46:07.118Z,62.70
2018-12-25T10:48:47.226Z,60.70
2018-12-25T10:51:26.892Z,59.00
2018-12-25T10:54:06.940Z,57.80
2018-12-25T10:56:47.063Z,56.60
2018-12-25T10:59:27.205Z,55.60
2018-12-25T11:02:07.182Z,55.90
2018-12-25T11:04:47.212Z,56.90
2018-12-25T11:07:27.214Z,57.80
2018-12-25T11:10:07.659Z,58.40
2018-12-25T11:12:47.771Z,59.10
2018-12-25T11:15:28.021Z,60.10
2018-12-25T11:18:08.045Z,61.20
2018-12-25T11:20:48.226Z,62.00
2018-12-25T11:23:27.947Z,62.60
2018-12-25T11:26:08.124Z,63.20
2018-12-25T11:28:48.019Z,63.50
2018-12-25T11:31:28.272Z,64.10
2018-12-25T11:34:08.790Z,64.60
2018-12-25T11:36:49.498Z,65.20
2018-12-25T11:39:29.139Z,66.00
2018-12-25T11:42:09.229Z,66.60
2018-12-25T11:44:49.137Z,66.70
2018-12-25T11:47:29.225Z,67.60
2018-12-25T11:50:09.450Z,67.00
2018-12-25T11:52:49.359Z,67.30
2018-12-25T11:55:29.313Z,67.40
2018-12-25T11:58:09.269Z,67.30
2018-12-25T12:00:49.518Z,67.60
2018-12-25T12:03:30.415Z,67.80
2018-12-25T12:06:10.768Z,67.90
2018-12-25T12:08:50.837Z,67.80
2018-12-25T12:11:30.581Z,67.50
2018-12-25T12:14:10.805Z,67.50
2018-12-25T12:16:50.793Z,67.50
2018-12-25T12:19:31.010Z,67.80
2018-12-25T12:22:10.924Z,67.70
2018-12-25T12:24:38.261Z,67.80
2018-12-25T12:27:05.607Z,67.90
2018-12-25T12:29:32.990Z,68.00
2018-12-25T12:32:00.379Z,68.00
2018-12-25T12:34:28.066Z,68.00
2018-12-25T12:36:55.481Z,68.20
2018-12-25T12:39:22.833Z,68.30
2018-12-25T12:41:50.139Z,68.30
2018-12-25T12:44:36.967Z,68.70
2018-12-25T12:47:23.820Z,69.00
2018-12-25T12:50:10.677Z,69.30
2018-12-25T12:52:58.279Z,69.50
2018-12-25T12:55:45.032Z,69.60
2018-12-25T12:58:31.908Z,69.80
2018-12-25T13:01:18.757Z,70.00
2018-12-25T13:04:05.521Z,70.70
2018-12-25T13:06:52.249Z,70.00
2018-12-25T13:09:39.093Z,70.20
2018-12-25T13:12:26.027Z,70.40
2018-12-25T13:15:12.823Z,70.40
2018-12-25T13:17:59.671Z,70.60
2018-12-25T13:20:46.506Z,70.80
2018-12-25T13:23:33.333Z,71.00
2018-12-25T13:26:20.093Z,71.20
2018-12-25T13:29:06.919Z,71.30
2018-12-25T13:31:53.781Z,71.30
2018-12-25T13:34:40.589Z,71.20
2018-12-25T13:37:27.423Z,71.20
2018-12-25T13:40:14.245Z,71.40
2018-12-25T13:43:01.122Z,71.70
2018-12-25T13:45:47.937Z,71.80
2018-12-25T13:48:34.901Z,71.80
2018-12-25T13:51:21.750Z,71.80
2018-12-25T13:54:08.582Z,71.50
2018-12-25T13:56:55.422Z,71.40
2018-12-25T13:59:42.324Z,71.40
2018-12-25T14:02:29.182Z,71.40
2018-12-25T14:05:16.021Z,71.60
2018-12-25T14:08:02.863Z,71.80
2018-12-25T14:10:49.692Z,71.70
2018-12-25T14:13:36.539Z,71.50
2018-12-25T14:16:23.417Z,71.60
2018-12-25T14:19:10.250Z,71.90
2018-12-25T14:21:57.005Z,73.30
2018-12-25T14:24:44.121Z,72.40
2018-12-25T14:27:30.971Z,72.30
2018-12-25T14:30:10.673Z,72.30
2018-12-25T14:32:50.826Z,72.20
2018-12-25T14:35:30.945Z,72.40
2018-12-25T14:38:11.191Z,72.70
2018-12-25T14:40:51.394Z,73.00
2018-12-25T14:43:31.505Z,73.40
2018-12-25T14:46:11.523Z,73.70
2018-12-25T14:48:51.690Z,74.10
2018-12-25T14:51:31.460Z,74.20
2018-12-25T14:54:11.687Z,74.50
2018-12-25T14:56:51.926Z,74.80
2018-12-25T14:59:32.324Z,74.90
2018-12-25T15:02:12.661Z,75.00
2018-12-25T15:04:52.630Z,75.20
2018-12-25T15:07:32.618Z,75.40
2018-12-25T15:10:12.833Z,75.60
2018-12-25T15:12:52.996Z,75.80
2018-12-25T15:15:33.096Z,75.80
2018-12-25T15:18:13.260Z,75.80
2018-12-25T15:20:53.389Z,75.90
2018-12-25T15:23:33.516Z,76.10
2018-12-25T15:26:13.373Z,76.10
2018-12-25T15:28:53.358Z,76.10
2018-12-25T15:31:33.555Z,76.20
2018-12-25T15:34:13.651Z,76.20
2018-12-25T15:36:53.682Z,76.10
2018-12-25T15:39:21.167Z,76.20
2018-12-25T15:42:08.040Z,76.40
2018-12-25T15:44:54.887Z,76.40
2018-12-25T15:47:41.792Z,76.70
2018-12-25T15:50:28.718Z,76.80
2018-12-25T15:56:52.304Z,77.20
2018-12-25T15:59:39.150Z,77.40
2018-12-25T16:02:25.990Z,77.70
2018-12-25T16:05:12.814Z,77.90
2018-12-25T16:07:59.672Z,78.10
2018-12-25T16:10:46.565Z,78.40
2018-12-25T16:13:33.517Z,78.60
2018-12-25T16:16:20.347Z,78.90
2018-12-25T16:19:07.185Z,79.20
2018-12-25T16:21:54.832Z,79.20
2018-12-25T16:24:41.648Z,79.40
2018-12-25T16:27:28.486Z,79.60
2018-12-25T16:30:15.215Z,79.80
2018-12-25T16:32:55.395Z,80.10
2018-12-25T16:35:35.516Z,80.20
2018-12-25T16:38:15.545Z,80.30
2018-12-25T16:40:55.844Z,80.50
2018-12-25T16:43:33.718Z,80.70
2018-12-25T16:46:20.508Z,80.90
2018-12-25T16:49:07.227Z,81.10
2018-12-25T16:51:54.096Z,81.10
2018-12-25T16:54:40.989Z,81.40
2018-12-25T16:57:27.899Z,81.50
2018-12-25T17:00:14.727Z,81.60
2018-12-25T17:03:01.562Z,81.60
2018-12-25T17:05:48.372Z,81.60
2018-12-25T17:08:35.106Z,81.60
2018-12-25T17:11:21.973Z,81.70
2018-12-25T17:14:08.804Z,81.60
2018-12-25T17:16:55.696Z,81.60
2018-12-25T17:19:42.557Z,81.50
2018-12-25T17:22:29.473Z,81.40
2018-12-25T17:25:16.284Z,81.30
2018-12-25T17:28:03.368Z,81.50
2018-12-25T17:30:50.208Z,81.60
2018-12-25T17:33:37.043Z,81.70
2018-12-25T17:36:23.848Z,81.80
2018-12-25T17:39:10.613Z,81.90
2018-12-25T17:41:57.425Z,82.10
2018-12-25T17:44:44.325Z,82.30
2018-12-25T17:47:31.240Z,82.40
2018-12-25T17:50:18.052Z,82.50
2018-12-25T17:53:06.181Z,82.50
2018-12-25T17:56:13.493Z,82.70
2018-12-25T17:59:00.418Z,82.90
2018-12-25T18:01:47.260Z,83.00
2018-12-25T18:04:34.146Z,83.10
2018-12-25T18:07:21.243Z,83.00
2018-12-25T18:10:07.975Z,82.80
2018-12-25T18:12:54.779Z,82.90
2018-12-25T18:15:41.535Z,82.90
2018-12-25T18:18:28.258Z,82.90
2018-12-25T18:21:15.101Z,83.20
2018-12-25T18:24:01.798Z,83.20
2018-12-25T18:26:48.790Z,83.30
2018-12-25T18:29:36.374Z,83.40
2018-12-25T18:32:15.878Z,83.50
2018-12-25T18:34:43.390Z,83.60
2018-12-25T18:37:30.297Z,83.70
2018-12-25T18:40:17.100Z,83.60
2018-12-25T18:43:03.939Z,83.70
2018-12-25T18:45:50.735Z,83.80
2018-12-25T18:48:37.574Z,83.80
2018-12-25T18:51:24.391Z,84.00
2018-12-25T18:54:11.251Z,84.30
2018-12-25T18:56:57.966Z,84.30
2018-12-25T18:59:44.833Z,84.50
2018-12-25T19:02:31.736Z,84.80
2018-12-25T19:05:18.554Z,85.20
2018-12-25T19:08:05.438Z,85.60
2018-12-25T19:10:52.197Z,86.20
2018-12-25T19:13:39.242Z,86.70
2018-12-25T19:16:26.148Z,87.00
2018-12-25T19:19:13.013Z,87.30
2018-12-25T19:21:59.875Z,87.50
2018-12-25T19:24:46.726Z,87.80
2018-12-25T19:27:33.556Z,87.90
2018-12-25T19:30:21.351Z,88.10
2018-12-25T19:33:01.411Z,88.40
2018-12-25T19:35:41.538Z,88.60
2018-12-25T19:38:21.584Z,88.80
2018-12-25T19:41:01.654Z,88.80
2018-12-25T19:43:41.809Z,89.10
2018-12-25T19:46:21.847Z,89.40
2018-12-25T19:49:02.214Z,89.70
2018-12-25T19:51:42.520Z,90.00
2018-12-25T19:54:22.667Z,90.10
2018-12-25T19:57:02.576Z,90.20
2018-12-25T19:59:42.572Z,90.40
2018-12-25T20:02:22.669Z,90.40
2018-12-25T20:05:02.829Z,90.60
2018-12-25T20:07:42.966Z,90.70
2018-12-25T20:10:23.072Z,90.70
2018-12-25T20:13:03.277Z,90.90
2018-12-25T20:15:43.418Z,91.00
2018-12-25T20:18:23.514Z,91.00
2018-12-25T20:21:03.640Z,91.20
2018-12-25T20:23:43.716Z,91.30
2018-12-25T20:26:23.896Z,91.70
2018-12-25T20:29:04.023Z,91.40
2018-12-25T20:31:43.987Z,91.50
2018-12-25T20:34:24.102Z,91.60
2018-12-25T20:37:04.212Z,91.60
2018-12-25T20:39:44.328Z,91.70
2018-12-25T20:42:24.528Z,91.70
2018-12-25T20:45:04.552Z,91.70
2018-12-25T20:47:46.690Z,91.70
2018-12-25T20:50:28.800Z,91.80
2018-12-25T20:53:08.819Z,91.90
2018-12-25T20:55:48.786Z,91.90
2018-12-25T20:58:28.791Z,92.00
2018-12-25T21:01:08.991Z,92.00
2018-12-25T21:03:49.057Z,92.10
2018-12-25T21:06:29.002Z,92.20
2018-12-25T21:09:09.014Z,92.30
2018-12-25T21:11:49.225Z,92.30
2018-12-25T21:14:29.307Z,92.40
2018-12-25T21:17:09.493Z,92.40
2018-12-25T21:19:49.560Z,92.60
2018-12-25T21:22:29.623Z,92.60
2018-12-25T21:25:10.137Z,92.70
2018-12-25T21:27:49.705Z,92.70
2018-12-25T21:30:29.731Z,92.70
2018-12-25T21:33:09.682Z,92.70
2018-12-25T21:35:49.727Z,92.70
2018-12-25T21:38:29.575Z,92.70
2018-12-25T21:41:10.032Z,92.80
2018-12-25T21:43:50.078Z,92.80
2018-12-25T21:46:29.965Z,92.90
2018-12-25T21:49:09.822Z,92.90
2018-12-25T21:51:50.111Z,92.90
2018-12-25T21:54:30.035Z,92.90
2018-12-25T21:57:09.847Z,93.00
2018-12-25T21:59:37.498Z,93.00
2018-12-25T22:02:24.366Z,93.10
2018-12-25T22:05:11.338Z,93.10
2018-12-25T22:08:00.605Z,93.10
2018-12-25T22:10:47.437Z,93.10
2018-12-25T22:13:34.305Z,93.30
2018-12-25T22:16:21.242Z,93.30
2018-12-25T22:19:08.130Z,93.40
2018-12-25T22:21:55.142Z,93.50
2018-12-25T22:24:42.049Z,93.60
2018-12-25T22:27:28.758Z,93.60
2018-12-25T22:30:15.518Z,93.60
2018-12-25T22:33:02.391Z,93.60
2018-12-25T22:35:42.544Z,93.60
2018-12-25T22:38:22.666Z,93.60
2018-12-25T22:41:03.454Z,93.60
2018-12-25T22:43:43.611Z,93.60
2018-12-25T22:46:23.834Z,93.60
2018-12-25T22:49:03.591Z,93.70
2018-12-25T22:51:43.918Z,93.70
2018-12-25T22:54:23.910Z,93.70
2018-12-25T22:57:03.958Z,94.20
2018-12-25T22:59:44.092Z,93.90
2018-12-25T23:02:24.176Z,94.00
2018-12-25T23:05:04.276Z,94.00
2018-12-25T23:07:31.656Z,94.10
2018-12-25T23:10:00.468Z,94.50
2018-12-25T23:12:27.833Z,94.20
2018-12-25T23:15:14.732Z,94.30
2018-12-25T23:18:01.556Z,94.30
2018-12-25T23:20:48.415Z,94.30
2018-12-25T23:23:35.318Z,94.30
2018-12-25T23:26:22.182Z,94.30
2018-12-25T23:29:09.039Z,94.30
2018-12-25T23:31:55.967Z,94.30
2018-12-25T23:34:35.758Z,94.60
2018-12-25T23:37:15.928Z,94.30
2018-12-25T23:39:56.221Z,94.30
2018-12-25T23:42:36.460Z,94.60
2018-12-25T23:45:16.402Z,94.40
2018-12-25T23:47:56.494Z,94.40
2018-12-25T23:50:36.393Z,94.50
2018-12-25T23:53:16.607Z,94.50
2018-12-25T23:55:56.654Z,94.50
2018-12-25T23:58:36.935Z,94.60
